createdAt,value
2019-03-10T00:02:26.930Z,45.18
2019-03-10T00:04:54.146Z,45.20
2019-03-10T00:07:21.395Z,45.16
2019-03-10T00:09:48.637Z,45.16
2019-03-10T00:12:15.877Z,45.11
2019-03-10T00:14:43.126Z,45.28
2019-03-10T00:17:10.341Z,45.28
2019-03-10T00:19:37.529Z,45.20
2019-03-10T00:22:04.803Z,45.21
2019-03-10T00:24:32.048Z,45.23
2019-03-10T00:26:59.228Z,45.23
2019-03-10T00:29:26.461Z,44.95
2019-03-10T00:31:53.678Z,44.95
2019-03-10T00:34:20.940Z,45.15
2019-03-10T00:36:48.162Z,45.09
2019-03-10T00:39:33.212Z,44.87
2019-03-10T00:42:34.461Z,44.87
2019-03-10T00:45:30.192Z,45.13
2019-03-10T00:48:38.093Z,45.07
2019-03-10T00:51:45.129Z,45.13
2019-03-10T00:54:12.398Z,45.10
2019-03-10T00:56:39.585Z,45.05
2019-03-10T00:59:06.895Z,44.97
2019-03-10T01:01:34.054Z,45.08
2019-03-10T01:04:01.291Z,45.12
2019-03-10T01:06:28.517Z,45.12
2019-03-10T01:08:55.711Z,45.12
2019-03-10T01:11:22.953Z,44.89
2019-03-10T01:13:50.142Z,44.89
2019-03-10T01:16:17.367Z,45.05
2019-03-10T01:18:44.619Z,45.11
2019-03-10T01:21:11.883Z,45.08
2019-03-10T01:23:39.100Z,45.15
2019-03-10T01:26:06.345Z,45.21
2019-03-10T01:28:33.560Z,45.12
2019-03-10T01:31:24.824Z,45.20
2019-03-10T01:34:35.885Z,45.13
2019-03-10T01:37:03.126Z,45.11
2019-03-10T01:39:30.317Z,45.16
2019-03-10T01:41:57.545Z,45.17
2019-03-10T01:44:24.736Z,45.19
2019-03-10T01:46:51.960Z,45.13
2019-03-10T01:49:19.179Z,45.13
2019-03-10T01:51:46.439Z,45.13
2019-03-10T01:54:13.711Z,45.13
2019-03-10T01:56:41.048Z,45.23
2019-03-10T01:59:08.283Z,45.01
2019-03-10T02:01:35.643Z,45.18
2019-03-10T02:04:02.895Z,45.01
2019-03-10T02:06:30.098Z,45.01
2019-03-10T02:08:57.330Z,45.04
2019-03-10T02:11:24.537Z,45.04
2019-03-10T02:13:51.766Z,45.10
2019-03-10T02:16:18.971Z,45.05
2019-03-10T02:18:46.187Z,44.95
2019-03-10T02:21:13.410Z,44.95
2019-03-10T02:23:40.638Z,45.14
2019-03-10T02:26:07.806Z,45.19
2019-03-10T02:28:35.027Z,44.89
2019-03-10T02:31:02.390Z,44.89
2019-03-10T02:33:29.618Z,44.99
2019-03-10T02:35:56.811Z,45.04
2019-03-10T02:38:24.045Z,45.21
2019-03-10T02:40:51.271Z,45.21
2019-03-10T02:43:18.479Z,44.97
2019-03-10T02:45:45.660Z,44.97
2019-03-10T02:48:12.875Z,45.44
2019-03-10T02:50:40.158Z,45.44
2019-03-10T02:53:07.300Z,45.09
2019-03-10T02:55:34.536Z,45.13
2019-03-10T02:58:01.774Z,44.94
2019-03-10T03:00:29.042Z,44.94
2019-03-10T03:02:56.210Z,45.18
2019-03-10T03:05:23.479Z,45.21
2019-03-10T03:07:50.699Z,45.14
2019-03-10T03:10:17.907Z,45.14
2019-03-10T03:12:45.137Z,45.24
2019-03-10T03:15:12.344Z,45.23
2019-03-10T03:17:39.504Z,45.27
2019-03-10T03:20:07.559Z,44.90
2019-03-10T03:22:34.782Z,44.90
2019-03-10T03:25:02.085Z,45.29
2019-03-10T03:27:29.390Z,45.37
2019-03-10T03:29:56.602Z,45.37
2019-03-10T03:32:23.876Z,45.31
2019-03-10T03:34:51.085Z,45.38
2019-03-10T03:37:20.401Z,45.34
2019-03-10T03:39:49.577Z,45.34
2019-03-10T03:42:16.817Z,45.30
2019-03-10T03:44:44.017Z,45.30
2019-03-10T03:47:11.376Z,45.33
2019-03-10T03:49:38.567Z,45.33
2019-03-10T03:52:05.793Z,45.23
2019-03-10T03:54:32.980Z,45.23
2019-03-10T03:57:00.213Z,45.26
2019-03-10T03:59:27.436Z,45.29
2019-03-10T04:02:09.525Z,45.29
2019-03-10T04:04:36.761Z,45.31
2019-03-10T04:07:04.028Z,45.39
2019-03-10T04:09:31.257Z,45.56
2019-03-10T04:11:58.494Z,45.56
2019-03-10T04:14:25.735Z,45.40
2019-03-10T04:16:52.935Z,45.39
2019-03-10T04:19:20.137Z,45.41
2019-03-10T04:21:47.387Z,45.41
2019-03-10T04:24:14.574Z,45.22
2019-03-10T04:26:41.854Z,45.00
2019-03-10T04:29:09.105Z,45.00
2019-03-10T04:31:36.322Z,45.05
2019-03-10T04:34:03.591Z,45.01
2019-03-10T04:36:30.823Z,44.86
2019-03-10T04:38:58.035Z,44.81
2019-03-10T04:41:25.272Z,44.81
2019-03-10T04:43:52.551Z,44.71
2019-03-10T04:46:19.765Z,44.71
2019-03-10T04:48:47.055Z,44.52
2019-03-10T04:51:14.216Z,44.47
2019-03-10T04:53:41.457Z,44.46
2019-03-10T04:56:19.475Z,44.80
2019-03-10T04:58:49.281Z,44.80
2019-03-10T05:01:16.488Z,44.34
2019-03-10T05:03:43.687Z,44.49
2019-03-10T05:06:10.927Z,44.49
2019-03-10T05:08:38.163Z,44.30
2019-03-10T05:11:05.366Z,44.30
2019-03-10T05:13:32.596Z,44.20
2019-03-10T05:15:59.838Z,44.20
2019-03-10T05:18:27.082Z,44.21
2019-03-10T05:20:54.275Z,44.20
2019-03-10T05:23:31.710Z,44.26
2019-03-10T05:25:58.990Z,44.30
2019-03-10T05:28:26.477Z,44.52
2019-03-10T05:30:53.713Z,44.52
2019-03-10T05:33:21.002Z,44.32
2019-03-10T05:35:48.262Z,44.17
2019-03-10T05:38:15.473Z,44.38
2019-03-10T05:40:42.688Z,44.38
2019-03-10T05:43:09.893Z,44.27
2019-03-10T05:45:37.100Z,44.28
2019-03-10T05:48:04.287Z,44.24
2019-03-10T05:50:31.501Z,44.22
2019-03-10T05:53:00.689Z,44.24
2019-03-10T05:55:27.843Z,44.25
2019-03-10T05:57:55.017Z,44.24
2019-03-10T06:00:22.237Z,44.00
2019-03-10T06:02:49.499Z,44.05
2019-03-10T06:05:16.715Z,44.05
2019-03-10T06:07:43.933Z,44.13
2019-03-10T06:10:11.158Z,44.12
2019-03-10T06:12:38.392Z,44.20
2019-03-10T06:15:05.712Z,44.20
2019-03-10T06:17:32.919Z,44.34
2019-03-10T06:20:00.380Z,43.96
2019-03-10T06:22:27.678Z,43.96
2019-03-10T06:24:54.909Z,44.07
2019-03-10T06:27:22.178Z,44.07
2019-03-10T06:29:49.750Z,43.90
2019-03-10T06:32:16.926Z,44.06
2019-03-10T06:34:44.197Z,43.96
2019-03-10T06:37:11.423Z,44.00
2019-03-10T06:39:38.631Z,43.92
2019-03-10T06:42:05.982Z,43.59
2019-03-10T06:44:33.207Z,44.09
2019-03-10T06:47:00.401Z,43.98
2019-03-10T06:49:27.636Z,44.31
2019-03-10T06:51:54.854Z,43.98
2019-03-10T06:54:22.090Z,43.98
2019-03-10T06:56:49.354Z,43.98
2019-03-10T06:59:16.513Z,43.88
2019-03-10T07:01:43.759Z,43.88
2019-03-10T07:04:10.982Z,43.86
2019-03-10T07:06:38.439Z,43.89
2019-03-10T07:09:05.725Z,43.80
2019-03-10T07:11:32.967Z,43.77
2019-03-10T07:14:00.195Z,43.75
2019-03-10T07:16:27.421Z,43.75
2019-03-10T07:18:54.664Z,43.75
2019-03-10T07:21:21.868Z,43.73
2019-03-10T07:23:49.100Z,43.74
2019-03-10T07:26:16.287Z,43.72
2019-03-10T07:28:49.294Z,43.51
2019-03-10T07:31:29.125Z,43.51
2019-03-10T07:34:03.881Z,43.53
2019-03-10T07:36:53.248Z,43.63
2019-03-10T07:39:40.007Z,43.64
2019-03-10T07:42:32.861Z,43.62
2019-03-10T07:45:22.487Z,43.57
2019-03-10T07:48:07.908Z,43.47
2019-03-10T07:50:57.112Z,43.47
2019-03-10T07:53:31.653Z,43.42
2019-03-10T07:56:11.399Z,43.39
2019-03-10T07:58:49.730Z,43.36
2019-03-10T08:01:31.363Z,43.32
2019-03-10T08:04:14.201Z,43.29
2019-03-10T08:06:58.787Z,43.25
2019-03-10T08:09:42.600Z,43.20
2019-03-10T08:12:35.534Z,43.13
2019-03-10T08:15:28.707Z,43.06
2019-03-10T08:18:18.127Z,43.05
2019-03-10T08:21:03.616Z,43.05
2019-03-10T08:23:45.572Z,43.02
2019-03-10T08:26:35.252Z,43.01
2019-03-10T08:29:37.271Z,42.99
2019-03-10T08:32:12.613Z,42.95
2019-03-10T08:35:02.211Z,42.90
2019-03-10T08:37:55.047Z,42.88
2019-03-10T08:40:56.729Z,42.89
2019-03-10T08:43:58.568Z,42.87
2019-03-10T08:46:42.883Z,42.85
2019-03-10T08:49:45.634Z,42.86
2019-03-10T08:52:16.832Z,42.85
2019-03-10T08:54:50.717Z,42.86
2019-03-10T08:57:40.509Z,42.84
2019-03-10T09:00:31.017Z,42.83
2019-03-10T09:03:08.402Z,42.77
2019-03-10T09:05:58.190Z,42.74
2019-03-10T09:08:50.716Z,42.74
2019-03-10T09:11:35.980Z,42.72
2019-03-10T09:14:21.554Z,42.73
2019-03-10T09:17:08.290Z,42.69
2019-03-10T09:19:47.615Z,42.61
2019-03-10T09:22:37.402Z,42.48
2019-03-10T09:25:11.998Z,42.40
2019-03-10T09:27:56.383Z,42.46
2019-03-10T09:30:46.211Z,42.47
2019-03-10T09:33:30.547Z,42.42
2019-03-10T09:36:09.527Z,42.34
2019-03-10T09:38:56.274Z,42.22
2019-03-10T09:41:41.561Z,42.17
2019-03-10T09:44:28.300Z,42.16
2019-03-10T09:47:04.140Z,42.15
2019-03-10T09:49:53.594Z,42.13
2019-03-10T09:52:43.299Z,42.16
2019-03-10T09:55:36.095Z,42.20
2019-03-10T09:58:35.032Z,42.24
2019-03-10T10:01:30.630Z,42.29
2019-03-10T10:04:17.418Z,42.24
2019-03-10T10:06:51.297Z,42.26
2019-03-10T10:09:43.410Z,42.27
2019-03-10T10:12:33.069Z,42.22
2019-03-10T10:15:25.860Z,42.21
2019-03-10T10:18:18.267Z,42.11
2019-03-10T10:21:10.747Z,42.06
2019-03-10T10:23:57.258Z,42.02
2019-03-10T10:26:46.846Z,42.03
2019-03-10T10:29:36.520Z,42.11
2019-03-10T10:32:32.227Z,42.09
2019-03-10T10:35:19.002Z,42.11
2019-03-10T10:38:05.530Z,42.13
2019-03-10T10:41:03.221Z,42.13
2019-03-10T10:43:42.527Z,42.14
2019-03-10T10:46:35.219Z,42.11
2019-03-10T10:49:31.158Z,42.08
2019-03-10T10:52:10.017Z,42.01
2019-03-10T10:54:56.731Z,41.93
2019-03-10T10:57:37.140Z,41.82
2019-03-10T11:00:14.972Z,41.72
2019-03-10T11:03:00.146Z,41.66
2019-03-10T11:05:44.302Z,41.64
2019-03-10T11:08:25.984Z,41.71
2019-03-10T11:11:20.687Z,41.78
2019-03-10T11:14:25.603Z,41.82
2019-03-10T11:17:18.137Z,41.90
2019-03-10T11:20:01.732Z,41.91
2019-03-10T11:22:40.937Z,41.89
2019-03-10T11:25:27.706Z,41.91
2019-03-10T11:28:09.984Z,41.94
2019-03-10T11:30:55.274Z,41.97
2019-03-10T11:33:44.958Z,41.99
2019-03-10T11:36:34.637Z,41.99
2019-03-10T11:39:17.805Z,41.93
2019-03-10T11:41:57.068Z,41.89
2019-03-10T11:44:55.881Z,41.82
2019-03-10T11:47:28.776Z,41.77
2019-03-10T11:50:10.535Z,41.74
2019-03-10T11:52:55.067Z,41.73
2019-03-10T11:55:47.801Z,41.80
2019-03-10T11:58:32.590Z,41.85
2019-03-10T12:01:22.003Z,41.87
2019-03-10T12:04:21.007Z,41.89
2019-03-10T12:07:07.756Z,41.92
2019-03-10T12:09:34.977Z,41.90
2019-03-10T12:12:02.195Z,41.91
2019-03-10T12:14:29.376Z,41.97
2019-03-10T12:16:56.564Z,42.05
2019-03-10T12:19:23.787Z,42.08
2019-03-10T12:21:50.970Z,42.04
2019-03-10T12:24:18.175Z,42.01
2019-03-10T12:26:45.408Z,42.00
2019-03-10T12:29:12.659Z,42.00
2019-03-10T12:31:39.826Z,41.98
2019-03-10T12:34:07.037Z,42.00
2019-03-10T12:36:34.281Z,42.06
2019-03-10T12:39:01.551Z,42.07
2019-03-10T12:41:28.762Z,42.07
2019-03-10T12:43:55.972Z,42.06
2019-03-10T12:46:23.139Z,42.04
2019-03-10T12:48:50.344Z,42.07
2019-03-10T12:51:17.545Z,42.08
2019-03-10T12:53:44.765Z,42.13
2019-03-10T12:56:11.979Z,42.17
2019-03-10T12:58:39.171Z,42.23
2019-03-10T13:01:06.955Z,42.27
2019-03-10T13:03:34.259Z,42.29
2019-03-10T13:06:01.675Z,42.28
2019-03-10T13:08:28.922Z,42.28
2019-03-10T13:10:56.107Z,42.29
2019-03-10T13:13:23.340Z,42.30
2019-03-10T13:15:50.615Z,42.28
2019-03-10T13:18:17.804Z,42.29
2019-03-10T13:20:45.074Z,42.29
2019-03-10T13:23:12.266Z,42.30
2019-03-10T13:25:39.463Z,42.38
2019-03-10T13:28:06.655Z,42.41
2019-03-10T13:30:33.933Z,42.49
2019-03-10T13:33:01.152Z,42.54
2019-03-10T13:35:28.333Z,42.58
2019-03-10T13:37:55.651Z,42.64
2019-03-10T13:40:22.811Z,42.67
2019-03-10T13:42:50.039Z,42.68
2019-03-10T13:45:17.250Z,42.77
2019-03-10T13:47:44.461Z,42.78
2019-03-10T13:50:11.839Z,42.83
2019-03-10T13:52:39.073Z,42.87
2019-03-10T13:55:06.529Z,42.90
2019-03-10T13:57:33.729Z,42.92
2019-03-10T14:00:01.026Z,42.96
2019-03-10T14:02:28.236Z,43.02
2019-03-10T14:04:55.432Z,43.04
2019-03-10T14:07:22.691Z,43.08
2019-03-10T14:09:49.878Z,43.08
2019-03-10T14:12:17.109Z,43.12
2019-03-10T14:14:44.342Z,43.12
2019-03-10T14:17:11.517Z,43.12
2019-03-10T14:19:38.747Z,43.16
2019-03-10T14:22:05.974Z,43.22
2019-03-10T14:24:33.157Z,43.24
2019-03-10T14:27:00.438Z,43.26
2019-03-10T14:29:27.622Z,43.27
2019-03-10T14:31:54.876Z,43.31
2019-03-10T14:34:22.120Z,43.34
2019-03-10T14:36:49.390Z,43.35
2019-03-10T14:39:16.615Z,43.39
2019-03-10T14:41:43.802Z,43.42
2019-03-10T14:44:11.046Z,43.44
2019-03-10T14:46:38.222Z,43.45
2019-03-10T14:49:05.554Z,43.47
2019-03-10T14:51:32.791Z,43.49
2019-03-10T14:54:00.004Z,43.51
2019-03-10T14:56:27.525Z,43.53
2019-03-10T14:58:54.731Z,43.53
2019-03-10T15:01:22.436Z,43.53
2019-03-10T15:03:49.826Z,43.53
2019-03-10T15:06:17.084Z,43.56
2019-03-10T15:08:46.354Z,43.56
2019-03-10T15:11:13.517Z,43.59
2019-03-10T15:13:40.739Z,43.61
2019-03-10T15:16:07.904Z,43.60
2019-03-10T15:18:35.106Z,43.64
2019-03-10T15:21:02.323Z,43.70
2019-03-10T15:23:29.550Z,43.71
2019-03-10T15:25:56.797Z,43.71
2019-03-10T15:28:24.110Z,43.71
2019-03-10T15:30:51.303Z,43.70
2019-03-10T15:33:18.861Z,43.72
2019-03-10T15:35:46.088Z,43.75
2019-03-10T15:38:13.277Z,43.75
2019-03-10T15:40:40.535Z,43.77
2019-03-10T15:43:07.727Z,43.79
2019-03-10T15:45:35.011Z,43.79
2019-03-10T15:48:02.192Z,43.81
2019-03-10T15:50:29.421Z,43.79
2019-03-10T15:52:56.622Z,43.79
2019-03-10T15:55:23.878Z,43.83
2019-03-10T15:57:51.179Z,43.78
2019-03-10T16:00:18.894Z,43.81
2019-03-10T16:02:46.093Z,43.83
2019-03-10T16:05:13.293Z,43.87
2019-03-10T16:07:41.462Z,43.85
2019-03-10T16:10:09.030Z,43.85
2019-03-10T16:12:36.235Z,43.83
2019-03-10T16:15:03.928Z,43.85
2019-03-10T16:17:31.151Z,43.82
2019-03-10T16:19:58.335Z,43.86
2019-03-10T16:22:25.587Z,43.93
2019-03-10T16:24:52.804Z,43.92
2019-03-10T16:27:20.021Z,43.98
2019-03-10T16:29:47.226Z,43.97
2019-03-10T16:32:14.521Z,43.98
2019-03-10T16:34:41.707Z,43.98
2019-03-10T16:37:08.923Z,43.98
2019-03-10T16:39:36.120Z,44.00
2019-03-10T16:42:03.371Z,44.02
2019-03-10T16:44:30.551Z,44.03
2019-03-10T16:46:57.888Z,44.10
2019-03-10T16:49:25.056Z,44.15
2019-03-10T16:51:52.261Z,44.13
2019-03-10T16:54:19.532Z,44.07
2019-03-10T16:56:46.740Z,44.09
2019-03-10T16:59:14.007Z,44.16
2019-03-10T17:01:41.234Z,44.18
2019-03-10T17:04:08.474Z,44.21
2019-03-10T17:06:35.680Z,44.24
2019-03-10T17:09:14.566Z,44.31
2019-03-10T17:11:41.823Z,44.35
2019-03-10T17:14:09.022Z,44.33
2019-03-10T17:16:36.240Z,44.30
2019-03-10T17:19:03.441Z,44.37
2019-03-10T17:21:30.761Z,44.43
2019-03-10T17:23:57.927Z,44.35
2019-03-10T17:26:25.127Z,44.41
2019-03-10T17:28:52.403Z,44.35
2019-03-10T17:31:19.639Z,44.78
2019-03-10T17:33:46.830Z,44.78
2019-03-10T17:36:14.072Z,44.46
2019-03-10T17:38:41.287Z,44.46
2019-03-10T17:41:08.479Z,44.47
2019-03-10T17:43:35.819Z,44.50
2019-03-10T17:46:03.014Z,44.25
2019-03-10T17:48:30.226Z,44.25
2019-03-10T17:50:57.438Z,44.62
2019-03-10T17:53:24.661Z,44.52
2019-03-10T17:55:52.000Z,44.76
2019-03-10T17:58:19.198Z,44.50
2019-03-10T18:00:46.395Z,44.51
2019-03-10T18:03:13.625Z,44.53
2019-03-10T18:05:40.858Z,44.58
2019-03-10T18:08:08.075Z,44.63
2019-03-10T18:10:35.314Z,44.55
2019-03-10T18:13:02.530Z,44.69
2019-03-10T18:15:29.849Z,44.69
2019-03-10T18:17:57.055Z,44.62
2019-03-10T18:20:24.250Z,44.55
2019-03-10T18:22:51.480Z,44.65
2019-03-10T18:25:18.673Z,44.68
2019-03-10T18:27:46.205Z,44.64
2019-03-10T18:30:15.260Z,44.62
2019-03-10T18:32:42.461Z,44.60
2019-03-10T18:35:12.673Z,44.60
2019-03-10T18:37:39.841Z,44.60
2019-03-10T18:40:10.721Z,44.58
2019-03-10T18:42:38.029Z,44.61
2019-03-10T18:45:05.428Z,44.66
2019-03-10T18:47:32.622Z,44.63
2019-03-10T18:50:00.008Z,44.67
2019-03-10T18:52:27.215Z,44.69
2019-03-10T18:54:54.475Z,44.68
2019-03-10T18:57:21.777Z,44.71
2019-03-10T18:59:48.980Z,44.60
2019-03-10T19:02:16.204Z,44.70
2019-03-10T19:04:43.498Z,44.63
2019-03-10T19:07:10.702Z,44.62
2019-03-10T19:09:37.934Z,44.63
2019-03-10T19:12:05.159Z,44.62
2019-03-10T19:14:32.381Z,44.59
2019-03-10T19:16:59.655Z,44.59
2019-03-10T19:19:26.880Z,44.67
2019-03-10T19:21:54.283Z,44.63
2019-03-10T19:24:21.494Z,44.67
2019-03-10T19:26:48.687Z,44.73
2019-03-10T19:29:16.034Z,44.70
2019-03-10T19:31:43.202Z,44.61
2019-03-10T19:34:10.417Z,44.52
2019-03-10T19:36:37.662Z,44.60
2019-03-10T19:39:05.884Z,44.65
2019-03-10T19:41:33.067Z,44.64
2019-03-10T19:44:00.310Z,44.62
2019-03-10T19:46:27.636Z,44.72
2019-03-10T19:48:54.850Z,44.68
2019-03-10T19:51:22.044Z,44.63
2019-03-10T19:53:49.247Z,44.59
2019-03-10T19:56:16.466Z,44.65
2019-03-10T19:58:43.670Z,44.69
2019-03-10T20:01:10.887Z,44.64
2019-03-10T20:03:38.098Z,44.76
2019-03-10T20:06:05.341Z,44.76
2019-03-10T20:08:32.755Z,45.01
2019-03-10T20:10:59.938Z,44.75
2019-03-10T20:13:27.119Z,44.75
2019-03-10T20:15:54.330Z,44.70
2019-03-10T20:18:21.555Z,44.78
2019-03-10T20:20:48.824Z,44.81
2019-03-10T20:23:16.000Z,44.97
2019-03-10T20:25:43.164Z,45.15
2019-03-10T20:28:10.384Z,45.54
2019-03-10T20:30:37.678Z,45.54
2019-03-10T20:33:05.010Z,45.71
2019-03-10T20:35:33.753Z,45.71
2019-03-10T20:38:01.063Z,45.98
2019-03-10T20:40:28.355Z,46.05
2019-03-10T20:42:55.579Z,46.05
2019-03-10T20:45:24.515Z,46.25
2019-03-10T20:47:51.917Z,46.25
2019-03-10T20:50:19.171Z,46.19
2019-03-10T20:52:46.359Z,46.93
2019-03-10T20:55:13.749Z,47.31
2019-03-10T20:57:40.983Z,47.22
2019-03-10T21:00:11.200Z,47.22
2019-03-10T21:02:38.498Z,47.13
2019-03-10T21:05:07.212Z,47.21
2019-03-10T21:07:34.365Z,47.21
2019-03-10T21:10:01.564Z,47.39
2019-03-10T21:12:39.468Z,47.36
2019-03-10T21:14:57.971Z,47.36
2019-03-10T21:17:25.178Z,47.64
2019-03-10T21:19:52.517Z,47.30
2019-03-10T21:22:20.997Z,47.31
2019-03-10T21:24:48.467Z,47.31
2019-03-10T21:27:15.731Z,47.90
2019-03-10T21:29:43.025Z,47.75
2019-03-10T21:32:10.191Z,47.75
2019-03-10T21:34:37.543Z,47.86
2019-03-10T21:37:09.015Z,48.04
2019-03-10T21:39:36.264Z,48.03
2019-03-10T21:42:03.526Z,48.31
2019-03-10T21:44:30.762Z,48.31
2019-03-10T21:46:57.944Z,48.01
2019-03-10T21:49:25.143Z,48.11
2019-03-10T21:51:52.363Z,48.00
2019-03-10T21:54:19.567Z,48.08
2019-03-10T21:56:46.792Z,48.07
2019-03-10T21:59:14.064Z,48.07
2019-03-10T22:01:41.282Z,48.46
2019-03-10T22:04:08.540Z,48.46
2019-03-10T22:06:35.763Z,48.71
2019-03-10T22:09:04.708Z,48.71
2019-03-10T22:11:32.140Z,48.63
2019-03-10T22:13:59.366Z,48.90
2019-03-10T22:16:26.566Z,48.90
2019-03-10T22:18:53.761Z,49.14
2019-03-10T22:21:21.007Z,48.88
2019-03-10T22:23:58.449Z,48.49
2019-03-10T22:26:17.354Z,48.49
2019-03-10T22:28:44.510Z,48.48
2019-03-10T22:31:11.765Z,48.36
2019-03-10T22:33:38.962Z,48.36
2019-03-10T22:36:06.221Z,48.23
2019-03-10T22:38:33.491Z,48.17
2019-03-10T22:41:00.722Z,47.80
2019-03-10T22:43:27.925Z,48.51
2019-03-10T22:45:55.203Z,48.31
2019-03-10T22:48:22.399Z,48.31
2019-03-10T22:50:49.743Z,48.50
2019-03-10T22:53:16.952Z,48.66
2019-03-10T22:55:44.179Z,48.22
2019-03-10T22:58:11.358Z,48.22
2019-03-10T23:00:45.864Z,48.68
2019-03-10T23:03:13.110Z,48.59
2019-03-10T23:05:41.567Z,48.49
2019-03-10T23:08:09.103Z,48.52
2019-03-10T23:10:36.320Z,48.29
2019-03-10T23:13:03.545Z,48.29
2019-03-10T23:15:30.774Z,48.74
2019-03-10T23:17:57.934Z,48.57
2019-03-10T23:20:25.169Z,48.64
2019-03-10T23:22:52.351Z,48.64
2019-03-10T23:25:19.610Z,48.39
2019-03-10T23:27:47.032Z,48.38
2019-03-10T23:30:14.308Z,48.74
2019-03-10T23:32:41.598Z,48.74
2019-03-10T23:35:08.941Z,48.93
2019-03-10T23:37:36.126Z,49.02
2019-03-10T23:40:03.803Z,48.98
2019-03-10T23:42:31.189Z,49.25
2019-03-10T23:44:58.428Z,49.20
2019-03-10T23:47:25.702Z,49.45
2019-03-10T23:49:52.996Z,49.47
2019-03-10T23:52:20.179Z,49.47
2019-03-10T23:54:47.440Z,49.62
2019-03-10T23:57:14.679Z,49.88
2019-03-10T23:59:41.920Z,49.81
